Time;durP1;ratioP1;P1;durP2;ratioP2;P2;SDS_P1;SDS_P2;PMS_P1;PMS_P2;Temp;Humidity;BMP_temperature;BMP_pressure;BME280_temperature;BME280_humidity;BME280_pressure;Samples;Min_cycle;Max_cycle;Signal;HPM_P1;HPM_P2
2022/06/14 00:01:13;;;;;;;4.15;1.10;;;;;;;;;;5092073;28;20231;-21
2022/06/14 00:03:41;;;;;;;3.83;1.00;;;;;;;;;;5092233;28;21100;-21
2022/06/14 00:06:09;;;;;;;4.22;1.33;;;;;;;;;;5099855;28;20327;-22
2022/06/14 00:08:37;;;;;;;2.92;0.90;;;;;;;;;;5092058;28;20228;-22
2022/06/14 00:11:06;;;;;;;3.42;1.10;;;;;;;;;;5092302;28;20228;-22
2022/06/14 00:13:33;;;;;;;4.47;1.30;;;;;;;;;;5106115;28;20236;-22
2022/06/14 00:16:00;;;;;;;3.28;1.13;;;;;;;;;;5092792;28;20275;-22
2022/06/14 00:18:28;;;;;;;2.40;0.88;;;;;;;;;;5092487;28;20237;-22
2022/06/14 00:20:55;;;;;;;2.63;1.00;;;;;;;;;;5091966;28;20233;-21
2022/06/14 00:23:23;;;;;;;2.05;0.90;;;;;;;;;;5093046;28;20228;-22
2022/06/14 00:25:52;;;;;;;3.25;1.17;;;;;;;;;;5091336;28;20232;-22
2022/06/14 00:28:20;;;;;;;2.65;1.30;;;;;;;;;;5090310;28;20349;-22
2022/06/14 00:30:49;;;;;;;2.28;0.88;;;;;;;;;;5092379;28;20236;-21
2022/06/14 00:33:16;;;;;;;4.15;0.90;;;;;;;;;;5091516;28;20295;-22
2022/06/14 00:35:43;;;;;;;2.42;1.00;;;;;;;;;;5090603;28;20239;-22
2022/06/14 00:38:11;;;;;;;3.40;0.98;;;;;;;;;;5092312;28;21050;-22
2022/06/14 00:40:39;;;;;;;4.68;1.58;;;;;;;;;;5098944;28;20224;-21
2022/06/14 00:43:13;;;;;;;3.20;0.90;;;;;;;;;;5097525;28;20411;-22
2022/06/14 00:45:59;;;;;;;3.00;1.23;;;;;;;;;;5077826;28;20240;-21
2022/06/14 00:48:27;;;;;;;1.92;0.73;;;;;;;;;;5091854;28;20229;-22
2022/06/14 00:50:56;;;;;;;4.28;0.95;;;;;;;;;;5105348;28;20319;-22
2022/06/14 00:53:24;;;;;;;2.97;0.85;;;;;;;;;;5091917;28;20243;-22
2022/06/14 00:55:53;;;;;;;2.88;0.98;;;;;;;;;;5106203;28;20672;-22
2022/06/14 00:58:23;;;;;;;1.98;0.85;;;;;;;;;;5090643;28;20227;-22
2022/06/14 01:00:52;;;;;;;2.78;1.10;;;;;;;;;;5093022;28;20310;-21
2022/06/14 01:03:19;;;;;;;5.47;1.10;;;;;;;;;;5091790;28;20228;-22
2022/06/14 01:06:06;;;;;;;3.13;0.82;;;;;;;;;;5091323;28;20247;-21
2022/06/14 01:08:34;;;;;;;2.78;0.95;;;;;;;;;;5091138;28;20942;-21
2022/06/14 01:11:02;;;;;;;4.93;1.10;;;;;;;;;;5106249;28;20235;-22
2022/06/14 01:13:31;;;;;;;3.35;0.75;;;;;;;;;;5089841;28;20239;-22
2022/06/14 01:15:58;;;;;;;2.55;1.08;;;;;;;;;;5090248;28;20767;-22
2022/06/14 01:18:25;;;;;;;4.47;0.95;;;;;;;;;;5088859;28;20225;-22
2022/06/14 01:20:53;;;;;;;3.08;1.13;;;;;;;;;;5090724;28;20244;-22
2022/06/14 01:23:21;;;;;;;3.80;0.95;;;;;;;;;;5090062;28;20247;-22
2022/06/14 01:25:50;;;;;;;1.95;0.73;;;;;;;;;;5091298;28;20251;-22
2022/06/14 01:28:17;;;;;;;4.43;1.00;;;;;;;;;;5086843;28;20695;-21
2022/06/14 01:30:45;;;;;;;3.67;0.90;;;;;;;;;;5091145;28;20231;-22
2022/06/14 01:33:14;;;;;;;2.85;1.02;;;;;;;;;;5091124;28;20268;-22
2022/06/14 01:35:43;;;;;;;3.15;1.10;;;;;;;;;;5090328;28;20284;-22
2022/06/14 01:38:11;;;;;;;2.70;0.98;;;;;;;;;;5091156;28;20229;-22
2022/06/14 01:40:44;;;;;;;4.25;0.80;;;;;;;;;;5090294;28;20243;-20
2022/06/14 01:43:16;;;;;;;1.58;0.75;;;;;;;;;;5092678;28;20228;-22
2022/06/14 01:45:46;;;;;;;2.30;0.93;;;;;;;;;;5090468;28;20758;-22
2022/06/14 01:48:16;;;;;;;2.15;0.82;;;;;;;;;;5090417;28;20236;-21
2022/06/14 01:53:34;;;;;;;1.63;1.00;;;;;;;;;;5090841;28;20228;-22
2022/06/14 01:56:11;;;;;;;1.90;1.00;;;;;;;;;;5100519;28;20228;-22
2022/06/14 01:58:40;;;;;;;2.15;0.75;;;;;;;;;;5089413;28;20224;-21
2022/06/14 02:01:17;;;;;;;2.70;0.90;;;;;;;;;;5092319;28;20236;-22
2022/06/14 02:06:31;;;;;;;3.15;1.15;;;;;;;;;;5090628;28;20232;-21
2022/06/14 02:09:00;;;;;;;1.85;0.80;;;;;;;;;;5094430;28;20228;-22
2022/06/14 02:11:30;;;;;;;5.85;1.10;;;;;;;;;;5100383;28;20247;-22
2022/06/14 02:13:58;;;;;;;2.90;1.02;;;;;;;;;;5090046;28;20232;-22
2022/06/14 02:16:27;;;;;;;2.60;1.15;;;;;;;;;;5090696;28;20230;-21
2022/06/14 02:19:02;;;;;;;1.27;0.80;;;;;;;;;;5091251;28;20279;-22
2022/06/14 02:21:32;;;;;;;2.42;1.00;;;;;;;;;;5128885;22;20657;-22
2022/06/14 02:24:00;;;;;;;4.40;1.90;;;;;;;;;;5126847;27;20231;-22
2022/06/14 02:26:29;;;;;;;2.55;1.00;;;;;;;;;;5131899;27;20989;-23
2022/06/14 02:28:58;;;;;;;1.42;0.80;;;;;;;;;;5125919;27;20960;-22
2022/06/14 02:31:28;;;;;;;3.60;0.60;;;;;;;;;;5129834;27;20238;-23
2022/06/14 02:33:57;;;;;;;2.33;0.93;;;;;;;;;;5129926;27;20930;-23
2022/06/14 02:36:25;;;;;;;2.78;0.95;;;;;;;;;;5129314;27;20760;-22
2022/06/14 02:38:53;;;;;;;1.85;0.93;;;;;;;;;;5127846;27;20231;-22
2022/06/14 02:41:21;;;;;;;3.33;0.90;;;;;;;;;;5124732;27;20236;-23
2022/06/14 02:43:49;;;;;;;3.58;0.80;;;;;;;;;;5128815;27;20228;-22
2022/06/14 02:46:19;;;;;;;2.45;0.90;;;;;;;;;;5128774;27;20240;-22
2022/06/14 02:48:48;;;;;;;2.15;0.80;;;;;;;;;;5129135;27;20259;-22
2022/06/14 02:51:17;;;;;;;2.55;0.82;;;;;;;;;;5131644;27;20238;-23
2022/06/14 02:53:46;;;;;;;2.47;1.00;;;;;;;;;;5133684;27;20228;-23
2022/06/14 02:56:14;;;;;;;2.90;1.17;;;;;;;;;;5131054;27;20684;-23
2022/06/14 02:58:43;;;;;;;3.63;0.80;;;;;;;;;;5133118;27;20223;-22
2022/06/14 03:01:13;;;;;;;1.50;0.70;;;;;;;;;;5134298;27;20610;-23
2022/06/14 03:03:44;;;;;;;2.55;0.85;;;;;;;;;;5125513;27;20235;-23
2022/06/14 03:06:12;;;;;;;2.40;0.80;;;;;;;;;;5134603;27;20370;-23
2022/06/14 03:08:41;;;;;;;2.03;0.95;;;;;;;;;;5134643;27;20235;-23
2022/06/14 03:11:09;;;;;;;3.33;0.90;;;;;;;;;;5134541;27;20827;-23
2022/06/14 03:13:39;;;;;;;2.28;0.88;;;;;;;;;;5133881;27;20246;-23
2022/06/14 03:16:11;;;;;;;1.98;0.95;;;;;;;;;;5134483;27;20993;-22
2022/06/14 03:18:44;;;;;;;1.67;0.80;;;;;;;;;;5134201;27;21033;-23
2022/06/14 03:21:14;;;;;;;5.60;1.10;;;;;;;;;;5134289;27;20244;-22
2022/06/14 03:23:42;;;;;;;2.22;0.95;;;;;;;;;;5124434;27;20605;-22
2022/06/14 03:26:10;;;;;;;3.85;0.90;;;;;;;;;;5119432;27;20235;-22
2022/06/14 03:28:39;;;;;;;1.80;0.95;;;;;;;;;;5114630;27;20259;-22
2022/06/14 03:31:07;;;;;;;2.03;0.80;;;;;;;;;;5129263;27;20232;-23
2022/06/14 03:33:36;;;;;;;1.17;0.63;;;;;;;;;;5109416;27;20773;-22
2022/06/14 03:36:04;;;;;;;1.73;0.88;;;;;;;;;;5121072;27;20240;-23
2022/06/14 03:38:35;;;;;;;1.77;0.90;;;;;;;;;;5122369;27;20220;-23
2022/06/14 03:41:02;;;;;;;6.05;0.80;;;;;;;;;;5111681;27;20232;-23
2022/06/14 03:43:30;;;;;;;3.25;0.95;;;;;;;;;;5107084;27;20228;-21
2022/06/14 03:45:58;;;;;;;4.15;0.82;;;;;;;;;;5112620;28;20235;-21
2022/06/14 03:48:26;;;;;;;4.68;0.95;;;;;;;;;;5110846;27;20239;-21
2022/06/14 03:50:56;;;;;;;5.03;1.27;;;;;;;;;;5113725;28;20223;-21
2022/06/14 03:53:28;;;;;;;5.45;1.00;;;;;;;;;;5111797;28;20224;-22
2022/06/14 03:56:03;;;;;;;3.70;0.80;;;;;;;;;;5113576;28;20228;-21
2022/06/14 03:58:37;;;;;;;1.92;0.85;;;;;;;;;;5118447;27;20224;-21
2022/06/14 04:01:05;;;;;;;4.72;0.80;;;;;;;;;;5112809;28;20254;-21
2022/06/14 04:03:47;;;;;;;4.28;0.90;;;;;;;;;;5111744;27;21223;-21
2022/06/14 04:06:17;;;;;;;1.88;0.70;;;;;;;;;;5112790;28;20232;-21
2022/06/14 04:08:47;;;;;;;3.55;0.75;;;;;;;;;;5110386;27;20715;-21
2022/06/14 04:11:18;;;;;;;2.20;1.05;;;;;;;;;;5112925;28;20228;-21
2022/06/14 04:13:46;;;;;;;1.75;0.90;;;;;;;;;;5112262;28;20224;-21
2022/06/14 04:16:15;;;;;;;6.60;1.10;;;;;;;;;;5112772;28;20232;-21
2022/06/14 04:18:44;;;;;;;2.50;0.80;;;;;;;;;;5111610;28;20260;-21
2022/06/14 04:21:15;;;;;;;1.20;0.70;;;;;;;;;;5111833;28;20255;-20
2022/06/14 04:23:44;;;;;;;2.45;1.08;;;;;;;;;;5111667;28;20239;-21
2022/06/14 04:26:14;;;;;;;1.67;0.82;;;;;;;;;;5101922;28;20228;-21
2022/06/14 04:28:43;;;;;;;2.47;0.88;;;;;;;;;;5111941;28;20236;-21
2022/06/14 04:31:11;;;;;;;2.00;0.88;;;;;;;;;;5111668;27;21010;-20
2022/06/14 04:33:40;;;;;;;1.92;0.88;;;;;;;;;;5107553;28;20277;-21
2022/06/14 04:36:08;;;;;;;3.05;0.88;;;;;;;;;;5112336;28;20240;-20
2022/06/14 04:38:37;;;;;;;1.42;0.70;;;;;;;;;;5122057;27;20237;-21
2022/06/14 04:41:05;;;;;;;2.88;0.98;;;;;;;;;;5133483;27;20227;-21
2022/06/14 04:43:35;;;;;;;1.13;0.80;;;;;;;;;;5120194;27;20725;-21
2022/06/14 04:46:06;;;;;;;4.07;0.98;;;;;;;;;;5125404;27;20977;-20
2022/06/14 04:48:34;;;;;;;4.20;1.10;;;;;;;;;;5104765;27;20691;-20
2022/06/14 04:51:03;;;;;;;2.25;1.02;;;;;;;;;;5126823;27;20230;-21
2022/06/14 04:53:32;;;;;;;1.67;0.95;;;;;;;;;;5115051;27;20228;-20
2022/06/14 04:56:01;;;;;;;3.00;0.90;;;;;;;;;;5125721;27;20232;-21
2022/06/14 04:58:30;;;;;;;2.78;0.93;;;;;;;;;;5120600;27;20223;-20
2022/06/14 05:00:58;;;;;;;1.52;0.70;;;;;;;;;;5120207;27;20229;-19
2022/06/14 05:03:27;;;;;;;2.15;0.80;;;;;;;;;;5111997;27;20227;-21
2022/06/14 05:05:57;;;;;;;2.45;0.80;;;;;;;;;;5123039;27;21018;-21
2022/06/14 05:08:25;;;;;;;1.83;0.88;;;;;;;;;;5104466;27;20246;-21
2022/06/14 05:10:54;;;;;;;1.45;0.90;;;;;;;;;;5132451;27;20235;-19
2022/06/14 05:13:22;;;;;;;1.65;0.80;;;;;;;;;;5117032;27;20224;-20
2022/06/14 05:15:50;;;;;;;3.65;0.80;;;;;;;;;;5118407;27;20236;-21
2022/06/14 05:18:19;;;;;;;2.17;0.80;;;;;;;;;;5126784;27;20670;-21
2022/06/14 05:20:49;;;;;;;2.85;0.85;;;;;;;;;;5132160;27;20965;-21
2022/06/14 05:23:17;;;;;;;1.67;0.85;;;;;;;;;;5115558;27;20247;-20
2022/06/14 05:25:47;;;;;;;2.40;0.75;;;;;;;;;;5112049;27;20228;-21
2022/06/14 05:28:16;;;;;;;2.60;0.93;;;;;;;;;;5121961;27;20870;-21
2022/06/14 05:30:46;;;;;;;1.92;0.90;;;;;;;;;;5128095;27;20239;-20
2022/06/14 05:33:15;;;;;;;2.17;0.88;;;;;;;;;;5122859;27;20278;-20
2022/06/14 05:35:42;;;;;;;1.70;0.70;;;;;;;;;;5119728;27;20231;-20
2022/06/14 05:38:17;;;;;;;2.70;0.80;;;;;;;;;;5118809;27;20701;-21
2022/06/14 05:40:46;;;;;;;2.78;1.38;;;;;;;;;;5132254;27;20916;-19
2022/06/14 05:43:14;;;;;;;3.67;1.00;;;;;;;;;;5122108;27;20710;-21
2022/06/14 05:45:43;;;;;;;2.15;0.77;;;;;;;;;;5126397;27;20318;-21
2022/06/14 05:48:12;;;;;;;1.08;0.85;;;;;;;;;;5114453;27;20235;-21
2022/06/14 05:50:40;;;;;;;2.92;1.10;;;;;;;;;;5132106;27;20223;-19
2022/06/14 05:53:08;;;;;;;1.88;0.90;;;;;;;;;;5120603;27;20702;-21
2022/06/14 05:55:38;;;;;;;1.75;0.80;;;;;;;;;;5131446;27;20237;-21
2022/06/14 05:58:07;;;;;;;1.83;0.88;;;;;;;;;;5117363;27;20231;-21
2022/06/14 06:00:36;;;;;;;2.80;1.00;;;;;;;;;;5113755;27;20219;-21
2022/06/14 06:03:04;;;;;;;2.05;0.95;;;;;;;;;;5115642;27;20236;-20
2022/06/14 06:05:32;;;;;;;3.60;1.10;;;;;;;;;;5113817;27;20261;-21
2022/06/14 06:08:00;;;;;;;1.75;0.70;;;;;;;;;;5119363;27;20232;-21
2022/06/14 06:10:31;;;;;;;2.10;1.10;;;;;;;;;;5117755;27;20228;-22
2022/06/14 06:13:00;;;;;;;1.98;0.88;;;;;;;;;;5122021;27;21094;-20
2022/06/14 06:15:34;;;;;;;2.40;1.10;;;;;;;;;;5125521;27;20235;-21
2022/06/14 06:18:04;;;;;;;2.15;1.00;;;;;;;;;;5115230;27;20235;-20
2022/06/14 06:20:32;;;;;;;3.97;1.20;;;;;;;;;;5112250;27;20232;-22
2022/06/14 06:23:03;;;;;;;2.03;0.98;;;;;;;;;;5113182;27;20702;-20
2022/06/14 06:25:32;;;;;;;2.10;1.00;;;;;;;;;;5115567;27;20235;-21
2022/06/14 06:28:01;;;;;;;1.63;0.88;;;;;;;;;;5113708;27;20952;-21
2022/06/14 06:30:29;;;;;;;4.88;1.58;;;;;;;;;;5114625;28;20228;-21
2022/06/14 06:32:57;;;;;;;2.40;1.10;;;;;;;;;;5113618;28;20732;-21
2022/06/14 06:35:24;;;;;;;3.55;1.10;;;;;;;;;;5113951;28;20610;-21
2022/06/14 06:37:54;;;;;;;4.82;1.30;;;;;;;;;;5105801;28;20232;-21
2022/06/14 06:40:21;;;;;;;2.33;1.05;;;;;;;;;;5120461;27;20224;-21
2022/06/14 06:42:50;;;;;;;4.20;1.48;;;;;;;;;;5107015;27;20281;-19
2022/06/14 06:45:20;;;;;;;3.15;0.93;;;;;;;;;;5113860;28;20940;-20
2022/06/14 06:47:47;;;;;;;2.90;0.80;;;;;;;;;;5113264;27;20745;-21
2022/06/14 06:50:22;;;;;;;4.43;1.08;;;;;;;;;;5115422;27;20227;-21
2022/06/14 06:53:02;;;;;;;2.75;1.05;;;;;;;;;;5108557;28;21033;-21
2022/06/14 06:55:35;;;;;;;7.13;1.10;;;;;;;;;;5104100;28;20240;-21
2022/06/14 06:58:02;;;;;;;2.90;0.90;;;;;;;;;;5110200;28;20711;-21
2022/06/14 07:00:31;;;;;;;8.10;1.52;;;;;;;;;;5114401;27;20223;-21
2022/06/14 07:03:05;;;;;;;2.33;1.05;;;;;;;;;;5113771;28;20898;-21
2022/06/14 07:05:32;;;;;;;4.53;1.23;;;;;;;;;;5109984;28;20232;-21
2022/06/14 07:08:00;;;;;;;4.10;1.40;;;;;;;;;;5105619;28;20236;-21
2022/06/14 07:10:32;;;;;;;8.30;1.35;;;;;;;;;;5105842;28;21000;-21
2022/06/14 07:13:00;;;;;;;6.30;1.25;;;;;;;;;;5107524;28;20235;-21
2022/06/14 07:15:29;;;;;;;6.18;1.33;;;;;;;;;;5113196;28;20229;-21
2022/06/14 07:17:59;;;;;;;9.63;1.17;;;;;;;;;;5112940;28;20235;-20
2022/06/14 07:20:28;;;;;;;6.53;1.10;;;;;;;;;;5113901;27;20228;-21
2022/06/14 07:22:57;;;;;;;3.97;1.40;;;;;;;;;;5119020;27;20239;-21
2022/06/14 07:25:25;;;;;;;4.57;1.05;;;;;;;;;;5121154;27;20228;-19
2022/06/14 07:27:53;;;;;;;3.60;1.08;;;;;;;;;;5117104;27;20238;-22
2022/06/14 07:30:22;;;;;;;2.63;1.10;;;;;;;;;;5105352;27;20235;-20
2022/06/14 07:32:50;;;;;;;5.93;1.40;;;;;;;;;;5109167;27;20703;-21
2022/06/14 07:35:31;;;;;;;6.80;1.00;;;;;;;;;;5108857;28;20231;-20
2022/06/14 07:37:59;;;;;;;5.03;1.42;;;;;;;;;;5109245;27;20228;-21
2022/06/14 07:40:47;;;;;;;4.75;1.35;;;;;;;;;;5133799;27;20708;-21
2022/06/14 07:43:17;;;;;;;4.10;1.10;;;;;;;;;;5115173;27;20231;-21
2022/06/14 07:45:46;;;;;;;4.97;1.15;;;;;;;;;;5131577;27;20718;-21
2022/06/14 07:48:14;;;;;;;10.95;1.75;;;;;;;;;;5131910;27;20407;-21
2022/06/14 07:50:44;;;;;;;10.18;1.42;;;;;;;;;;5118402;27;20357;-21
2022/06/14 07:53:11;;;;;;;6.93;1.55;;;;;;;;;;5116078;27;20997;-21
2022/06/14 07:55:40;;;;;;;5.57;1.40;;;;;;;;;;5125442;27;20228;-21
2022/06/14 07:58:08;;;;;;;4.88;1.50;;;;;;;;;;5122004;27;20730;-21
2022/06/14 08:03:23;;;;;;;7.50;1.60;;;;;;;;;;5126196;27;20238;-21
2022/06/14 08:05:52;;;;;;;9.38;1.70;;;;;;;;;;5113587;27;20311;-21
2022/06/14 08:08:21;;;;;;;9.38;1.50;;;;;;;;;;5113887;27;20232;-21
2022/06/14 08:10:49;;;;;;;7.50;1.70;;;;;;;;;;5111993;28;20603;-21
2022/06/14 08:13:17;;;;;;;13.30;1.48;;;;;;;;;;5104085;27;20230;-21
2022/06/14 08:15:48;;;;;;;4.68;1.73;;;;;;;;;;5111692;28;20224;-21
2022/06/14 08:18:16;;;;;;;8.27;1.60;;;;;;;;;;5120764;27;20314;-22
2022/06/14 08:20:45;;;;;;;10.20;1.77;;;;;;;;;;5122311;27;20234;-21
2022/06/14 08:23:14;;;;;;;8.88;1.77;;;;;;;;;;5123467;27;20245;-21
2022/06/14 08:25:42;;;;;;;6.70;1.45;;;;;;;;;;5123315;27;20950;-21
2022/06/14 08:28:10;;;;;;;6.10;1.50;;;;;;;;;;5109112;27;20414;-21
2022/06/14 08:30:38;;;;;;;5.68;1.83;;;;;;;;;;5115515;27;20227;-20
2022/06/14 08:33:06;;;;;;;6.72;1.58;;;;;;;;;;5102968;27;20231;-22
2022/06/14 08:35:36;;;;;;;4.45;1.50;;;;;;;;;;5104051;27;20235;-22
2022/06/14 08:38:05;;;;;;;6.72;1.58;;;;;;;;;;5104709;27;20492;-21
2022/06/14 08:40:51;;;;;;;5.57;1.60;;;;;;;;;;5108541;28;20228;-21
2022/06/14 08:43:21;;;;;;;6.47;1.80;;;;;;;;;;5110333;27;20640;-22
2022/06/14 08:45:53;;;;;;;9.63;1.65;;;;;;;;;;5107677;28;20232;-20
2022/06/14 08:48:26;;;;;;;7.45;1.92;;;;;;;;;;5109919;27;20236;-20
2022/06/14 08:51:11;;;;;;;12.07;1.70;;;;;;;;;;5107517;27;20244;-21
2022/06/14 08:53:51;;;;;;;10.20;1.70;;;;;;;;;;5104886;27;20441;-20
2022/06/14 08:56:37;;;;;;;3.75;1.45;;;;;;;;;;5107811;27;20236;-20
2022/06/14 08:59:15;;;;;;;7.70;1.42;;;;;;;;;;5107128;27;20232;-21
2022/06/14 09:01:49;;;;;;;7.40;1.52;;;;;;;;;;5107342;27;20232;-20
2022/06/14 09:04:33;;;;;;;5.20;1.33;;;;;;;;;;5113219;27;20236;-20
2022/06/14 09:07:04;;;;;;;3.20;1.27;;;;;;;;;;5106678;27;20258;-19
2022/06/14 09:09:51;;;;;;;11.27;1.50;;;;;;;;;;5106581;27;20374;-21
2022/06/14 09:12:29;;;;;;;6.28;1.90;;;;;;;;;;5103940;28;20268;-20
2022/06/14 09:15:03;;;;;;;2.90;1.15;;;;;;;;;;5106297;28;20749;-20
2022/06/14 09:17:53;;;;;;;7.35;1.48;;;;;;;;;;5104964;27;20235;-20
2022/06/14 09:20:26;;;;;;;5.23;1.50;;;;;;;;;;5106360;28;20421;-20
2022/06/14 09:22:59;;;;;;;7.47;1.35;;;;;;;;;;5106062;27;20244;-18
2022/06/14 09:25:47;;;;;;;5.70;1.40;;;;;;;;;;5106504;27;20933;-19
2022/06/14 09:28:19;;;;;;;3.78;1.60;;;;;;;;;;5103416;27;20681;-20
2022/06/14 09:30:55;;;;;;;6.28;1.77;;;;;;;;;;5105273;27;20250;-20
2022/06/14 09:33:46;;;;;;;4.05;1.30;;;;;;;;;;5111585;27;20231;-20
2022/06/14 09:36:22;;;;;;;5.35;1.25;;;;;;;;;;5086210;27;20307;-20
2022/06/14 09:38:55;;;;;;;5.68;1.65;;;;;;;;;;5103167;27;20687;-21
2022/06/14 09:41:24;;;;;;;4.63;1.40;;;;;;;;;;5107645;27;20266;-21
2022/06/14 09:44:00;;;;;;;3.88;1.58;;;;;;;;;;5106961;28;20691;-19
2022/06/14 09:46:48;;;;;;;4.43;1.57;;;;;;;;;;5104261;28;20872;-20
2022/06/14 09:49:42;;;;;;;6.88;1.50;;;;;;;;;;5102966;27;20290;-20
2022/06/14 09:52:25;;;;;;;5.78;1.25;;;;;;;;;;5104775;28;20239;-22
2022/06/14 09:55:19;;;;;;;6.47;1.33;;;;;;;;;;5067099;27;20243;-21
2022/06/14 09:58:13;;;;;;;5.82;1.33;;;;;;;;;;5057657;28;20887;-21
2022/06/14 10:00:44;;;;;;;3.38;1.15;;;;;;;;;;5062230;27;20228;-20
2022/06/14 10:03:19;;;;;;;6.78;1.42;;;;;;;;;;5110247;28;20231;-22
2022/06/14 10:06:04;;;;;;;3.55;1.10;;;;;;;;;;5110959;27;20227;-21
2022/06/14 10:08:51;;;;;;;3.92;1.35;;;;;;;;;;5103941;27;20238;-21
2022/06/14 10:11:22;;;;;;;4.72;1.30;;;;;;;;;;5110431;28;20877;-22
2022/06/14 10:13:53;;;;;;;5.20;1.40;;;;;;;;;;5106863;28;20235;-22
2022/06/14 10:16:27;;;;;;;5.50;1.52;;;;;;;;;;5112304;28;20238;-21
2022/06/14 10:19:08;;;;;;;3.40;1.40;;;;;;;;;;5114585;27;21156;-22
2022/06/14 10:21:37;;;;;;;3.78;1.48;;;;;;;;;;5111213;28;20224;-21
2022/06/14 10:24:08;;;;;;;4.18;1.40;;;;;;;;;;5108847;28;20777;-19
2022/06/14 10:29:42;;;;;;;5.07;1.27;;;;;;;;;;5111984;27;20942;-20
2022/06/14 10:32:24;;;;;;;5.85;1.45;;;;;;;;;;5108667;28;20236;-21
2022/06/14 10:34:52;;;;;;;5.60;1.75;;;;;;;;;;5114704;27;20227;-20
2022/06/14 10:37:23;;;;;;;5.22;2.00;;;;;;;;;;5108891;27;20624;-19
2022/06/14 10:40:09;;;;;;;4.75;1.50;;;;;;;;;;5109579;28;20644;-20
2022/06/14 10:42:39;;;;;;;6.47;1.55;;;;;;;;;;5112683;27;20240;-20
2022/06/14 10:45:08;;;;;;;4.43;1.50;;;;;;;;;;5108882;28;20274;-20
2022/06/14 10:47:44;;;;;;;4.10;1.40;;;;;;;;;;5109776;28;20260;-20
2022/06/14 10:50:26;;;;;;;5.03;1.55;;;;;;;;;;5106974;27;20657;-19
2022/06/14 10:52:55;;;;;;;4.50;1.35;;;;;;;;;;5108284;27;20236;-20
2022/06/14 10:55:38;;;;;;;3.72;1.52;;;;;;;;;;5112734;27;20702;-19
2022/06/14 10:58:13;;;;;;;3.33;1.30;;;;;;;;;;5104489;28;20282;-19
2022/06/14 11:00:41;;;;;;;8.18;1.50;;;;;;;;;;5110179;27;20694;-21
2022/06/14 11:03:15;;;;;;;4.30;1.27;;;;;;;;;;5107942;27;20408;-19
2022/06/14 11:06:10;;;;;;;3.28;1.20;;;;;;;;;;5118482;27;21102;-18
2022/06/14 11:08:41;;;;;;;3.20;1.20;;;;;;;;;;5061264;28;20228;-19
2022/06/14 11:11:21;;;;;;;4.60;1.40;;;;;;;;;;5110765;27;20252;-20
2022/06/14 11:13:49;;;;;;;5.97;1.38;;;;;;;;;;5106088;27;20231;-21
2022/06/14 11:16:19;;;;;;;5.07;1.20;;;;;;;;;;5111413;28;20228;-21
2022/06/14 11:18:55;;;;;;;6.30;1.15;;;;;;;;;;5105758;27;20291;-21
2022/06/14 11:21:41;;;;;;;7.45;1.63;;;;;;;;;;5112095;27;20611;-21
2022/06/14 11:24:10;;;;;;;4.10;1.58;;;;;;;;;;5070661;27;20231;-21
2022/06/14 11:26:40;;;;;;;5.63;1.40;;;;;;;;;;5110542;27;20235;-19
2022/06/14 11:29:09;;;;;;;10.63;1.33;;;;;;;;;;5115923;27;20441;-19
2022/06/14 11:31:38;;;;;;;4.13;1.27;;;;;;;;;;5108783;27;20244;-19
2022/06/14 11:34:10;;;;;;;5.30;1.45;;;;;;;;;;5112466;27;20421;-21
2022/06/14 11:36:39;;;;;;;4.47;0.90;;;;;;;;;;5106433;27;20253;-20
2022/06/14 11:39:10;;;;;;;3.42;1.50;;;;;;;;;;5113338;27;20232;-20
2022/06/14 11:41:39;;;;;;;11.07;1.60;;;;;;;;;;5110802;27;20413;-20
2022/06/14 11:44:09;;;;;;;6.63;1.60;;;;;;;;;;5109949;28;20228;-21
2022/06/14 11:46:39;;;;;;;9.95;1.77;;;;;;;;;;5107740;27;20274;-20
2022/06/14 11:49:08;;;;;;;6.28;1.35;;;;;;;;;;5110217;28;20234;-21
2022/06/14 11:51:38;;;;;;;3.97;1.50;;;;;;;;;;5108260;27;20239;-22
2022/06/14 11:54:17;;;;;;;4.60;1.55;;;;;;;;;;5108686;28;20244;-21
2022/06/14 11:56:47;;;;;;;4.00;1.73;;;;;;;;;;5108028;27;20243;-20
2022/06/14 11:59:25;;;;;;;4.05;1.65;;;;;;;;;;5106492;28;20240;-20
2022/06/14 12:01:55;;;;;;;3.83;1.77;;;;;;;;;;5106485;28;20243;-22
2022/06/14 12:04:34;;;;;;;4.15;1.52;;;;;;;;;;5106806;27;20235;-21
2022/06/14 12:07:07;;;;;;;5.70;1.80;;;;;;;;;;5108650;27;20355;-21
2022/06/14 12:09:45;;;;;;;4.07;1.35;;;;;;;;;;5107756;28;20710;-21
2022/06/14 12:12:16;;;;;;;5.57;1.88;;;;;;;;;;5109242;27;20244;-21
2022/06/14 12:14:51;;;;;;;2.40;1.45;;;;;;;;;;5107133;27;20319;-21
2022/06/14 12:17:20;;;;;;;3.97;1.50;;;;;;;;;;5108157;28;20694;-21
2022/06/14 12:19:49;;;;;;;2.60;1.42;;;;;;;;;;5107962;28;20259;-21
2022/06/14 12:22:28;;;;;;;3.42;1.75;;;;;;;;;;5107725;27;20244;-21
2022/06/14 12:27:43;;;;;;;2.70;1.60;;;;;;;;;;5109182;28;20224;-21
2022/06/14 12:30:11;;;;;;;3.20;1.50;;;;;;;;;;5109178;27;20239;-21
2022/06/14 12:32:40;;;;;;;3.90;1.67;;;;;;;;;;5111494;27;20281;-20
2022/06/14 12:35:08;;;;;;;4.57;1.48;;;;;;;;;;5114372;27;20236;-22
2022/06/14 12:37:38;;;;;;;3.75;1.55;;;;;;;;;;5108948;27;20239;-22
2022/06/14 12:40:07;;;;;;;4.85;1.80;;;;;;;;;;5113884;27;20231;-21
2022/06/14 12:42:40;;;;;;;3.80;1.50;;;;;;;;;;5107744;27;20336;-18
2022/06/14 12:45:08;;;;;;;3.22;1.15;;;;;;;;;;5114223;27;20258;-19
2022/06/14 12:47:38;;;;;;;4.72;1.60;;;;;;;;;;5104725;27;20973;-19
2022/06/14 12:50:11;;;;;;;2.75;1.55;;;;;;;;;;5112263;27;20240;-20
2022/06/14 12:52:41;;;;;;;3.95;1.50;;;;;;;;;;5111343;27;20311;-19
2022/06/14 12:55:17;;;;;;;2.83;1.30;;;;;;;;;;5111326;27;20232;-19
2022/06/14 12:57:54;;;;;;;3.60;1.23;;;;;;;;;;5107872;27;20232;-18
2022/06/14 13:00:23;;;;;;;4.18;1.70;;;;;;;;;;5105065;27;20610;-22
2022/06/14 13:02:53;;;;;;;3.38;1.80;;;;;;;;;;5109674;27;20243;-20
2022/06/14 13:05:21;;;;;;;4.30;1.55;;;;;;;;;;5108679;27;20235;-20
2022/06/14 13:07:52;;;;;;;3.40;1.60;;;;;;;;;;5108108;27;20787;-19
2022/06/14 13:10:32;;;;;;;3.20;1.52;;;;;;;;;;5107427;28;20240;-19
2022/06/14 13:13:04;;;;;;;2.70;1.52;;;;;;;;;;5111228;27;21442;-19
2022/06/14 13:15:34;;;;;;;4.80;1.98;;;;;;;;;;5114678;27;20236;-20
2022/06/14 13:18:06;;;;;;;4.47;1.38;;;;;;;;;;5111892;27;20224;-20
2022/06/14 13:20:35;;;;;;;2.40;1.38;;;;;;;;;;5104384;27;20620;-21
2022/06/14 13:23:08;;;;;;;4.75;1.50;;;;;;;;;;5107173;27;20232;-22
2022/06/14 13:25:40;;;;;;;3.67;1.63;;;;;;;;;;5109702;27;20232;-22
2022/06/14 13:28:11;;;;;;;2.10;1.52;;;;;;;;;;5110260;27;20247;-22
2022/06/14 13:30:40;;;;;;;3.83;1.75;;;;;;;;;;5108262;27;20263;-21
2022/06/14 13:33:13;;;;;;;3.33;1.48;;;;;;;;;;5111484;27;20281;-22
2022/06/14 13:35:45;;;;;;;4.20;1.55;;;;;;;;;;5110782;27;21024;-21
2022/06/14 13:38:16;;;;;;;3.83;1.40;;;;;;;;;;5107445;27;20239;-21
2022/06/14 13:40:44;;;;;;;3.45;1.50;;;;;;;;;;5110963;27;20643;-21
2022/06/14 13:43:19;;;;;;;2.33;1.30;;;;;;;;;;5107518;27;20243;-20
2022/06/14 13:45:47;;;;;;;2.88;1.30;;;;;;;;;;5106856;27;20693;-19
2022/06/14 13:48:17;;;;;;;2.97;1.40;;;;;;;;;;5103334;28;20811;-22
2022/06/14 13:50:45;;;;;;;4.80;1.50;;;;;;;;;;5105658;27;21048;-21
2022/06/14 13:53:15;;;;;;;2.90;1.37;;;;;;;;;;5104600;27;20440;-21
2022/06/14 13:55:43;;;;;;;4.85;1.45;;;;;;;;;;5104698;27;20238;-20
2022/06/14 13:58:12;;;;;;;5.10;1.23;;;;;;;;;;5111833;27;20235;-21
2022/06/14 14:00:42;;;;;;;4.97;1.20;;;;;;;;;;5116412;27;20236;-20
2022/06/14 14:03:27;;;;;;;4.80;1.40;;;;;;;;;;5109773;27;20448;-19
2022/06/14 14:05:58;;;;;;;10.20;1.80;;;;;;;;;;5110389;27;20310;-19
2022/06/14 14:08:30;;;;;;;6.50;1.33;;;;;;;;;;5105552;27;20228;-19
2022/06/14 14:11:00;;;;;;;4.82;1.63;;;;;;;;;;5109306;27;20228;-18
2022/06/14 14:13:28;;;;;;;3.63;1.30;;;;;;;;;;5103620;27;20746;-18
2022/06/14 14:15:57;;;;;;;3.20;1.27;;;;;;;;;;5111833;27;20353;-19
2022/06/14 14:18:27;;;;;;;5.53;1.25;;;;;;;;;;5118679;27;20239;-18
2022/06/14 14:20:55;;;;;;;4.82;1.45;;;;;;;;;;5106454;27;20228;-19
2022/06/14 14:23:36;;;;;;;2.95;1.15;;;;;;;;;;5107254;27;20745;-18
2022/06/14 14:26:05;;;;;;;2.58;1.10;;;;;;;;;;5105460;28;20699;-19
2022/06/14 14:28:35;;;;;;;3.38;0.90;;;;;;;;;;5106619;27;21013;-18
2022/06/14 14:31:10;;;;;;;5.03;1.15;;;;;;;;;;5107193;27;20907;-18
2022/06/14 14:33:39;;;;;;;4.47;1.10;;;;;;;;;;5112502;27;20727;-19
2022/06/14 14:36:11;;;;;;;15.40;1.23;;;;;;;;;;5104511;28;20319;-18
2022/06/14 14:38:41;;;;;;;19.33;1.42;;;;;;;;;;5105000;27;20299;-21
2022/06/14 14:43:54;;;;;;;4.00;1.15;;;;;;;;;;5107653;27;20232;-20
2022/06/14 14:46:23;;;;;;;4.88;1.25;;;;;;;;;;5105256;27;20673;-20
2022/06/14 14:48:54;;;;;;;7.32;1.70;;;;;;;;;;5110316;27;20228;-20
2022/06/14 14:51:23;;;;;;;2.70;1.10;;;;;;;;;;5112141;27;20644;-20
2022/06/14 14:53:58;;;;;;;3.13;1.13;;;;;;;;;;5116917;27;20228;-20
2022/06/14 14:56:26;;;;;;;3.00;1.17;;;;;;;;;;5118430;27;20231;-21
2022/06/14 14:58:55;;;;;;;5.40;1.45;;;;;;;;;;5109133;27;21011;-20
2022/06/14 15:07:05;;;;;;;6.10;1.30;;;;;;;;;;5110071;27;20695;-20
2022/06/14 15:09:35;;;;;;;2.20;1.00;;;;;;;;;;5112735;27;20228;-20
2022/06/14 15:12:04;;;;;;;4.63;1.20;;;;;;;;;;5104855;27;20274;-21
2022/06/14 15:14:31;;;;;;;7.28;1.23;;;;;;;;;;5112356;27;20228;-19
2022/06/14 15:19:56;;;;;;;6.85;1.33;;;;;;;;;;5078025;27;20245;-19
2022/06/14 15:22:25;;;;;;;5.95;1.40;;;;;;;;;;5112573;27;20246;-20
2022/06/14 15:24:55;;;;;;;10.27;1.20;;;;;;;;;;5118132;27;20228;-21
2022/06/14 15:27:32;;;;;;;10.80;1.60;;;;;;;;;;5122827;27;20233;-20
2022/06/14 15:29:59;;;;;;;3.97;1.23;;;;;;;;;;5108201;27;20232;-20
2022/06/14 15:32:28;;;;;;;4.15;1.00;;;;;;;;;;5104312;28;20232;-20